createdAt,value
2023-03-01T00:01:59.862Z,29.52
2023-03-01T00:04:28.741Z,26.67
2023-03-01T00:06:57.104Z,31.70
2023-03-01T00:09:25.434Z,28.05
2023-03-01T00:11:55.734Z,27.77
2023-03-01T00:14:24.902Z,30.45
2023-03-01T00:16:54.675Z,26.60
2023-03-01T00:19:24.007Z,30.48
2023-03-01T00:21:55.388Z,29.27
2023-03-01T00:24:23.804Z,29.63
2023-03-01T00:26:57.619Z,31.35
2023-03-01T00:29:26.189Z,33.25
2023-03-01T00:31:58.476Z,32.00
2023-03-01T00:34:27.092Z,27.58
2023-03-01T00:37:06.259Z,30.20
2023-03-01T00:39:37.621Z,27.15
2023-03-01T00:42:06.036Z,32.55
2023-03-01T00:44:35.413Z,30.65
2023-03-01T00:47:05.210Z,30.20
2023-03-01T00:49:36.031Z,31.63
2023-03-01T00:52:04.527Z,28.55
2023-03-01T00:54:33.022Z,31.55
2023-03-01T00:57:03.831Z,34.30
2023-03-01T00:59:32.476Z,34.42
2023-03-01T01:02:03.695Z,37.35
2023-03-01T01:04:33.504Z,29.80
2023-03-01T01:07:02.098Z,33.30
2023-03-01T01:09:30.333Z,28.90
2023-03-01T01:12:01.536Z,36.08
2023-03-01T01:14:29.776Z,30.40
2023-03-01T01:16:58.680Z,31.63
2023-03-01T01:19:27.765Z,31.67
2023-03-01T01:21:57.609Z,27.83
2023-03-01T01:24:29.127Z,25.67
2023-03-01T01:26:58.005Z,28.23
2023-03-01T01:29:28.783Z,31.50
2023-03-01T01:31:57.302Z,32.00
2023-03-01T01:34:28.278Z,32.83
2023-03-01T01:36:57.936Z,27.23
2023-03-01T01:39:26.361Z,29.63
2023-03-01T01:41:54.623Z,30.95
2023-03-01T01:44:27.387Z,34.72
2023-03-01T01:46:59.106Z,31.95
2023-03-01T01:49:35.690Z,30.08
2023-03-01T01:52:14.061Z,27.35
2023-03-01T01:54:46.426Z,29.63
2023-03-01T01:57:21.766Z,27.95
2023-03-01T01:59:54.086Z,31.13
2023-03-01T02:02:24.721Z,29.75
2023-03-01T02:04:59.647Z,30.27
2023-03-01T02:07:29.927Z,31.52
2023-03-01T02:09:59.497Z,29.35
2023-03-01T02:12:28.757Z,28.70
2023-03-01T02:14:57.025Z,31.23
2023-03-01T02:17:25.688Z,31.95
2023-03-01T02:20:07.930Z,32.20
2023-03-01T02:22:40.164Z,34.92
2023-03-01T02:25:19.275Z,30.35
2023-03-01T02:27:54.210Z,30.15
2023-03-01T02:30:25.219Z,31.17
2023-03-01T02:32:55.786Z,36.58
2023-03-01T02:35:27.733Z,34.50
2023-03-01T02:38:01.731Z,30.55
2023-03-01T02:40:31.816Z,29.52
2023-03-01T02:43:01.254Z,32.88
2023-03-01T02:45:31.144Z,36.47
2023-03-01T02:48:00.104Z,28.60
2023-03-01T02:50:48.876Z,30.90
2023-03-01T02:53:24.345Z,35.33
2023-03-01T02:55:52.669Z,32.58
2023-03-01T02:58:21.571Z,32.40
2023-03-01T03:00:51.723Z,39.83
2023-03-01T03:03:22.960Z,32.13
2023-03-01T03:05:51.376Z,31.48
2023-03-01T03:08:27.389Z,27.90
2023-03-01T03:10:55.719Z,33.38
2023-03-01T03:13:29.461Z,29.65
2023-03-01T03:15:59.591Z,30.92
2023-03-01T03:18:28.329Z,32.35
2023-03-01T03:20:59.088Z,29.92
2023-03-01T03:23:29.535Z,32.80
2023-03-01T03:25:57.694Z,35.25
2023-03-01T03:28:26.074Z,32.58
2023-03-01T03:31:02.510Z,32.92
2023-03-01T03:33:33.520Z,32.30
2023-03-01T03:36:01.976Z,34.13
2023-03-01T03:38:30.693Z,30.73
2023-03-01T03:41:04.655Z,29.55
2023-03-01T03:43:37.929Z,32.53
2023-03-01T03:46:10.896Z,31.10
2023-03-01T03:48:43.531Z,30.25
2023-03-01T03:51:13.061Z,29.73
2023-03-01T03:53:47.330Z,29.38
2023-03-01T03:56:15.920Z,31.95
2023-03-01T03:58:44.366Z,30.15
2023-03-01T04:01:14.118Z,36.05
2023-03-01T04:03:42.882Z,29.77
2023-03-01T04:06:13.075Z,34.90
2023-03-01T04:08:41.682Z,30.92
2023-03-01T04:11:23.991Z,32.95
2023-03-01T04:14:01.404Z,28.65
2023-03-01T04:16:31.484Z,34.42
2023-03-01T04:19:01.618Z,32.83
2023-03-01T04:21:30.256Z,33.85
2023-03-01T04:23:58.749Z,33.90
2023-03-01T04:26:30.378Z,29.52
2023-03-01T04:28:58.971Z,34.67
2023-03-01T04:31:29.543Z,29.92
2023-03-01T04:33:59.681Z,33.15
2023-03-01T04:36:31.878Z,31.60
2023-03-01T04:41:28.676Z,30.30
2023-03-01T04:43:57.120Z,31.70
2023-03-01T04:46:36.251Z,37.58
2023-03-01T04:49:07.392Z,30.63
2023-03-01T04:51:36.049Z,29.52
2023-03-01T04:54:04.460Z,32.45
2023-03-01T04:56:34.501Z,32.05
2023-03-01T04:59:06.728Z,31.48
2023-03-01T05:01:36.561Z,30.55
2023-03-01T05:04:06.612Z,30.58
2023-03-01T05:06:38.330Z,29.65
2023-03-01T05:09:06.671Z,27.42
2023-03-01T05:11:38.071Z,31.77
2023-03-01T05:14:06.900Z,32.55
2023-03-01T05:16:38.918Z,30.73
2023-03-01T05:19:12.793Z,32.33
2023-03-01T05:22:03.138Z,30.88
2023-03-01T05:24:32.877Z,34.78
2023-03-01T05:27:01.783Z,36.00
2023-03-01T05:29:31.579Z,33.75
2023-03-01T05:34:57.028Z,33.20
2023-03-01T05:39:54.682Z,32.83
2023-03-01T05:42:22.857Z,35.05
2023-03-01T05:44:50.909Z,33.63
2023-03-01T05:47:18.941Z,32.22
2023-03-01T05:49:47.001Z,31.85
2023-03-01T05:52:16.609Z,35.22
2023-03-01T05:54:44.826Z,31.77
2023-03-01T05:57:13.056Z,31.67
2023-03-01T05:59:41.169Z,31.83
2023-03-01T06:02:09.309Z,36.13
2023-03-01T06:04:37.422Z,35.42
2023-03-01T06:07:05.423Z,34.05
2023-03-01T06:09:34.997Z,35.28
2023-03-01T06:12:03.194Z,35.42
2023-03-01T06:14:31.251Z,33.50
2023-03-01T06:17:00.252Z,31.13
2023-03-01T06:19:28.412Z,35.58
2023-03-01T06:21:56.767Z,29.85
2023-03-01T06:24:24.944Z,35.35
2023-03-01T06:26:55.522Z,38.33
2023-03-01T06:29:24.769Z,39.85
2023-03-01T06:31:52.940Z,34.17
2023-03-01T06:34:22.741Z,32.63
2023-03-01T06:36:51.041Z,34.08
2023-03-01T06:39:19.340Z,39.08
2023-03-01T06:41:47.864Z,32.58
2023-03-01T06:44:17.435Z,34.03
2023-03-01T06:46:45.548Z,32.25
2023-03-01T06:49:13.653Z,32.53
2023-03-01T06:51:41.712Z,37.90
2023-03-01T06:54:10.284Z,37.35
2023-03-01T06:56:38.696Z,34.92
2023-03-01T06:59:06.962Z,33.30
2023-03-01T07:01:36.655Z,34.38
2023-03-01T07:04:04.834Z,32.53
2023-03-01T07:06:33.270Z,35.00
2023-03-01T07:09:01.550Z,30.60
2023-03-01T07:11:29.653Z,33.45
2023-03-01T07:14:01.108Z,33.97
2023-03-01T07:16:29.292Z,35.47
2023-03-01T07:19:00.912Z,32.60
2023-03-01T07:21:29.194Z,35.42
2023-03-01T07:23:57.477Z,32.95
2023-03-01T07:26:26.329Z,30.98
2023-03-01T07:28:54.582Z,34.42
2023-03-01T07:31:22.785Z,53.17
2023-03-01T07:33:50.860Z,34.53
2023-03-01T07:36:20.603Z,31.70
2023-03-01T07:38:48.925Z,29.55
2023-03-01T07:41:17.099Z,33.83
2023-03-01T07:43:45.151Z,34.13
2023-03-01T07:46:13.153Z,36.50
2023-03-01T07:48:41.231Z,35.13
2023-03-01T07:51:09.803Z,32.53
2023-03-01T07:53:39.497Z,29.55
2023-03-01T07:56:09.625Z,33.20
2023-03-01T07:58:38.249Z,35.80
2023-03-01T08:01:07.273Z,33.92
2023-03-01T08:03:35.824Z,32.75
2023-03-01T08:06:04.983Z,36.88
2023-03-01T08:08:33.787Z,33.33
2023-03-01T08:11:05.135Z,31.30
2023-03-01T08:13:33.542Z,31.17
2023-03-01T08:16:17.099Z,31.75
2023-03-01T08:18:46.837Z,30.58
2023-03-01T08:21:19.317Z,33.42
2023-03-01T08:23:55.307Z,35.30
2023-03-01T08:26:27.201Z,39.03
2023-03-01T08:28:58.921Z,28.83
2023-03-01T08:31:30.190Z,38.47
2023-03-01T08:34:01.778Z,29.85
2023-03-01T08:36:38.437Z,29.88
2023-03-01T08:39:23.255Z,29.52
2023-03-01T08:42:06.414Z,31.73
2023-03-01T08:44:37.847Z,31.35
2023-03-01T08:47:13.373Z,35.95
2023-03-01T08:49:44.724Z,34.50
2023-03-01T08:52:13.095Z,36.85
2023-03-01T08:55:00.438Z,32.10
2023-03-01T08:57:35.965Z,32.90
2023-03-01T09:00:40.881Z,42.53
2023-03-01T09:03:12.612Z,32.13
2023-03-01T09:05:47.191Z,33.53
2023-03-01T09:08:23.923Z,32.25
2023-03-01T09:10:58.628Z,40.72
2023-03-01T09:13:38.882Z,33.45
2023-03-01T09:16:15.439Z,27.50
2023-03-01T09:18:43.933Z,31.95
2023-03-01T09:21:39.505Z,34.70
2023-03-01T09:24:16.604Z,32.38
2023-03-01T09:27:01.809Z,28.15
2023-03-01T09:29:51.561Z,32.75
2023-03-01T09:32:22.059Z,33.00
2023-03-01T09:35:06.009Z,30.90
2023-03-01T09:37:44.087Z,33.35
2023-03-01T09:40:24.397Z,29.10
2023-03-01T09:43:27.021Z,33.80
2023-03-01T09:46:01.324Z,28.60
2023-03-01T09:48:40.104Z,30.50
2023-03-01T09:51:11.365Z,30.15
2023-03-01T09:53:44.525Z,28.52
2023-03-01T09:56:31.330Z,26.80
2023-03-01T09:59:27.496Z,30.02
2023-03-01T10:02:47.562Z,29.98
2023-03-01T10:09:37.759Z,31.48
2023-03-01T10:12:27.578Z,28.95
2023-03-01T10:15:15.507Z,31.75
2023-03-01T10:17:58.532Z,31.25
2023-03-01T10:20:50.631Z,29.48
2023-03-01T10:24:04.383Z,36.58
2023-03-01T10:26:58.258Z,30.35
2023-03-01T10:29:51.536Z,29.75
2023-03-01T10:36:00.171Z,32.33
2023-03-01T10:38:50.968Z,30.83
2023-03-01T10:41:25.682Z,30.23
2023-03-01T10:44:00.724Z,25.92
2023-03-01T10:46:31.026Z,31.42
2023-03-01T10:49:17.969Z,30.02
2023-03-01T10:51:53.976Z,28.65
2023-03-01T10:54:29.527Z,30.95
2023-03-01T10:57:06.389Z,31.33
2023-03-01T10:59:39.366Z,29.02
2023-03-01T11:02:26.393Z,29.92
2023-03-01T11:05:03.723Z,34.03
2023-03-01T11:07:52.845Z,32.15
2023-03-01T11:10:28.725Z,30.50
2023-03-01T11:13:09.397Z,28.10
2023-03-01T11:15:44.278Z,28.05
2023-03-01T11:18:44.226Z,31.73
2023-03-01T11:21:19.734Z,31.15
2023-03-01T11:23:55.607Z,29.15
2023-03-01T11:26:37.097Z,28.17
2023-03-01T11:29:12.834Z,31.75
2023-03-01T11:31:57.239Z,30.98
2023-03-01T11:34:52.040Z,32.65
2023-03-01T11:37:35.410Z,32.88
2023-03-01T11:40:17.547Z,28.80
2023-03-01T11:43:01.119Z,31.77
2023-03-01T11:45:40.040Z,30.10
2023-03-01T11:48:48.953Z,28.83
2023-03-01T11:51:26.469Z,31.20
2023-03-01T11:54:12.095Z,30.73
2023-03-01T11:56:49.194Z,32.97
2023-03-01T11:59:58.376Z,31.45
2023-03-01T12:03:10.036Z,30.88
2023-03-01T12:06:04.446Z,30.55
2023-03-01T12:08:39.772Z,34.40
2023-03-01T12:11:30.527Z,30.92
2023-03-01T12:14:44.632Z,30.65
2023-03-01T12:17:35.907Z,33.38
2023-03-01T12:20:19.084Z,37.88
2023-03-01T12:23:14.840Z,37.70
2023-03-01T12:25:55.759Z,30.67
2023-03-01T12:29:18.098Z,32.38
2023-03-01T12:32:05.926Z,33.70
2023-03-01T12:34:50.588Z,29.70
2023-03-01T12:37:31.598Z,31.75
2023-03-01T12:40:15.475Z,32.58
2023-03-01T12:42:53.008Z,31.58
2023-03-01T12:45:36.992Z,31.10
2023-03-01T12:48:23.167Z,31.13
2023-03-01T12:50:54.096Z,30.40
2023-03-01T12:53:26.697Z,32.67
2023-03-01T12:58:43.512Z,29.83
2023-03-01T13:01:28.760Z,27.83
2023-03-01T13:04:20.181Z,26.80
2023-03-01T13:06:57.753Z,27.17
2023-03-01T13:09:32.588Z,27.55
2023-03-01T13:12:02.818Z,28.25
2023-03-01T13:14:55.760Z,25.60
2023-03-01T13:17:45.116Z,26.35
2023-03-01T13:20:21.502Z,25.88
2023-03-01T13:23:00.087Z,31.58
2023-03-01T13:25:34.690Z,32.28
2023-03-01T13:28:45.005Z,29.45
2023-03-01T13:31:33.347Z,25.45
2023-03-01T13:34:02.021Z,31.80
2023-03-01T13:36:50.828Z,30.10
2023-03-01T13:39:32.774Z,28.10
2023-03-01T13:42:01.990Z,27.63
2023-03-01T13:44:34.244Z,30.50
2023-03-01T13:47:15.149Z,28.60
2023-03-01T13:49:48.198Z,30.60
2023-03-01T13:52:40.329Z,27.02
2023-03-01T13:55:19.159Z,29.73
2023-03-01T13:57:54.566Z,27.85
2023-03-01T14:00:32.867Z,30.23
2023-03-01T14:03:15.618Z,26.73
2023-03-01T14:05:46.080Z,28.00
2023-03-01T14:08:23.963Z,26.17
2023-03-01T14:11:04.936Z,27.95
2023-03-01T14:13:45.327Z,28.55
2023-03-01T14:16:27.526Z,27.63
2023-03-01T14:19:05.590Z,28.48
2023-03-01T14:21:33.657Z,28.42
2023-03-01T14:24:03.194Z,27.45
2023-03-01T14:26:33.160Z,29.27
2023-03-01T14:29:01.253Z,27.67
2023-03-01T14:31:47.098Z,27.88
2023-03-01T14:34:22.808Z,29.17
2023-03-01T14:36:50.955Z,30.17
2023-03-01T14:39:26.672Z,27.13
2023-03-01T14:41:56.265Z,28.63
2023-03-01T14:44:26.475Z,30.05
2023-03-01T14:46:57.990Z,29.60
2023-03-01T14:49:28.780Z,30.60
2023-03-01T14:52:02.825Z,26.95
2023-03-01T14:54:39.624Z,28.80
2023-03-01T14:57:07.730Z,30.42
2023-03-01T14:59:36.269Z,27.80
2023-03-01T15:02:04.656Z,28.65
2023-03-01T15:04:34.714Z,30.63
2023-03-01T15:07:05.847Z,33.17
2023-03-01T15:09:38.201Z,28.45
2023-03-01T15:12:42.146Z,28.58
2023-03-01T15:15:38.378Z,27.15
2023-03-01T15:18:15.843Z,29.80
2023-03-01T15:20:43.971Z,27.63
2023-03-01T15:23:25.505Z,32.05
2023-03-01T15:25:59.286Z,30.02
2023-03-01T15:28:30.562Z,34.13
2023-03-01T15:31:03.454Z,35.95
2023-03-01T15:33:35.650Z,26.92
2023-03-01T15:36:06.224Z,27.77
2023-03-01T15:38:40.065Z,27.25
2023-03-01T15:41:26.623Z,28.90
2023-03-01T15:43:56.615Z,25.75
2023-03-01T15:46:28.516Z,27.02
2023-03-01T15:48:59.298Z,28.00
2023-03-01T15:51:34.675Z,27.52
2023-03-01T15:54:07.043Z,29.42
2023-03-01T15:56:36.710Z,29.23
2023-03-01T15:59:05.857Z,27.50
2023-03-01T16:01:35.692Z,31.35
2023-03-01T16:04:04.144Z,28.88
2023-03-01T16:06:32.840Z,28.05
2023-03-01T16:09:01.296Z,29.30
2023-03-01T16:11:29.455Z,30.60
2023-03-01T16:13:58.955Z,28.20
2023-03-01T16:16:26.984Z,26.33
2023-03-01T16:18:55.933Z,28.02
2023-03-01T16:21:26.402Z,22.60
2023-03-01T16:23:55.008Z,25.88
2023-03-01T16:26:23.507Z,29.90
2023-03-01T16:28:51.854Z,24.52
2023-03-01T16:31:22.386Z,28.33
2023-03-01T16:33:53.520Z,25.90
2023-03-01T16:36:24.566Z,29.90
2023-03-01T16:38:53.532Z,26.98
2023-03-01T16:41:24.476Z,33.45
2023-03-01T16:43:53.765Z,26.33
2023-03-01T16:46:26.119Z,30.92
2023-03-01T16:48:55.222Z,27.92
2023-03-01T16:51:25.004Z,27.70
2023-03-01T16:53:54.082Z,26.67
2023-03-01T16:56:22.734Z,27.63
2023-03-01T16:58:51.285Z,30.20
2023-03-01T17:01:24.590Z,27.92
2023-03-01T17:03:54.643Z,28.90
2023-03-01T17:06:25.920Z,26.63
2023-03-01T17:08:54.464Z,30.60
2023-03-01T17:11:23.296Z,28.85
2023-03-01T17:13:51.771Z,28.40
2023-03-01T17:16:22.395Z,26.13
2023-03-01T17:18:54.233Z,27.20
2023-03-01T17:21:23.873Z,28.67
2023-03-01T17:23:53.009Z,28.02
2023-03-01T17:26:21.319Z,28.80
2023-03-01T17:28:52.766Z,29.52
2023-03-01T17:31:22.207Z,28.58
2023-03-01T17:33:50.604Z,29.35
2023-03-01T17:36:19.046Z,29.08
2023-03-01T17:38:49.350Z,30.17
2023-03-01T17:41:18.914Z,27.58
2023-03-01T17:43:47.280Z,29.77
2023-03-01T17:46:16.270Z,25.92
2023-03-01T17:48:44.859Z,30.55
2023-03-01T17:51:13.702Z,26.23
2023-03-01T17:53:41.708Z,29.60
2023-03-01T17:56:11.589Z,29.13
2023-03-01T17:58:40.365Z,26.73
2023-03-01T18:01:11.018Z,26.88
2023-03-01T18:03:39.262Z,30.33
2023-03-01T18:06:13.021Z,32.58
2023-03-01T18:08:41.159Z,32.05
2023-03-01T18:11:11.171Z,30.85
2023-03-01T18:13:39.901Z,30.02
2023-03-01T18:16:09.277Z,29.75
2023-03-01T18:18:37.509Z,32.00
2023-03-01T18:21:06.473Z,30.25
2023-03-01T18:23:36.099Z,28.40
2023-03-01T18:26:06.126Z,34.83
2023-03-01T18:28:36.000Z,34.35
2023-03-01T18:31:08.431Z,37.72
2023-03-01T18:36:05.715Z,33.63
2023-03-01T18:38:34.158Z,39.05
2023-03-01T18:41:02.212Z,35.50
2023-03-01T18:43:32.798Z,34.50
2023-03-01T18:46:05.416Z,31.77
2023-03-01T18:48:33.855Z,34.95
2023-03-01T18:51:09.775Z,33.83
2023-03-01T18:53:37.989Z,34.45
2023-03-01T18:56:07.004Z,47.75
2023-03-01T18:58:37.492Z,44.35
2023-03-01T19:01:13.503Z,34.08
2023-03-01T19:03:41.741Z,37.83
2023-03-01T19:06:09.935Z,37.28
2023-03-01T19:08:38.388Z,38.22
2023-03-01T19:11:07.294Z,35.33
2023-03-01T19:13:37.430Z,37.35
2023-03-01T19:16:09.616Z,36.78
2023-03-01T19:18:41.198Z,35.33
2023-03-01T19:21:10.926Z,35.67
2023-03-01T19:23:39.804Z,37.83
2023-03-01T19:26:09.985Z,40.13
2023-03-01T19:28:39.787Z,39.90
2023-03-01T19:31:11.842Z,35.50
2023-03-01T19:33:41.304Z,50.90
2023-03-01T19:36:10.400Z,70.03
2023-03-01T19:38:39.274Z,39.40
2023-03-01T19:41:09.237Z,43.65
2023-03-01T19:43:37.754Z,37.35
2023-03-01T19:46:06.236Z,36.67
2023-03-01T19:48:36.055Z,36.75
2023-03-01T19:51:04.281Z,35.40
2023-03-01T19:53:32.295Z,34.33
2023-03-01T19:56:01.410Z,36.08
2023-03-01T19:58:31.092Z,40.03
2023-03-01T20:01:00.721Z,38.50
2023-03-01T20:03:30.360Z,36.78
2023-03-01T20:06:02.532Z,33.28
2023-03-01T20:08:32.661Z,35.58
2023-03-01T20:11:04.133Z,37.10
2023-03-01T20:13:32.323Z,42.13
2023-03-01T20:16:01.150Z,44.28
2023-03-01T20:18:29.715Z,46.97
2023-03-01T20:20:59.801Z,37.85
2023-03-01T20:23:28.633Z,34.45
2023-03-01T20:26:03.732Z,39.15
2023-03-01T20:28:32.139Z,40.08
2023-03-01T20:31:08.878Z,41.10
2023-03-01T20:33:36.951Z,42.65
2023-03-01T20:36:08.090Z,50.95
2023-03-01T20:38:36.183Z,38.25
2023-03-01T20:41:06.268Z,34.53
2023-03-01T20:43:34.908Z,42.67
2023-03-01T20:46:05.383Z,41.90
2023-03-01T20:48:33.706Z,37.92
2023-03-01T20:51:05.696Z,40.47
2023-03-01T20:53:35.372Z,36.92
2023-03-01T20:56:04.532Z,37.78
2023-03-01T20:58:34.602Z,37.63
2023-03-01T21:01:03.548Z,37.25
2023-03-01T21:03:32.145Z,33.13
2023-03-01T21:06:02.470Z,38.17
2023-03-01T21:08:31.134Z,39.10
2023-03-01T21:11:00.753Z,36.20
2023-03-01T21:13:30.074Z,41.30
2023-03-01T21:16:01.027Z,38.22
2023-03-01T21:18:30.042Z,39.13
2023-03-01T21:21:00.785Z,42.58
2023-03-01T21:23:31.447Z,41.72
2023-03-01T21:26:07.181Z,44.30
2023-03-01T21:28:36.842Z,51.38
2023-03-01T21:31:07.459Z,42.83
2023-03-01T21:33:35.572Z,46.30
2023-03-01T21:36:06.108Z,44.78
2023-03-01T21:38:36.326Z,51.67
2023-03-01T21:41:07.428Z,45.38
2023-03-01T21:43:36.735Z,51.83
2023-03-01T21:46:05.713Z,51.28
2023-03-01T21:48:34.206Z,57.97
2023-03-01T21:51:03.879Z,50.20
2023-03-01T21:53:34.365Z,46.92
2023-03-01T21:56:03.181Z,50.33
2023-03-01T21:58:33.137Z,43.50
2023-03-01T22:01:08.574Z,45.50
2023-03-01T22:03:44.640Z,55.13
2023-03-01T22:06:29.765Z,43.92
2023-03-01T22:09:00.386Z,48.60
2023-03-01T22:11:28.802Z,56.25
2023-03-01T22:13:58.540Z,48.20
2023-03-01T22:16:29.556Z,46.25
2023-03-01T22:18:58.720Z,50.13
2023-03-01T22:21:28.063Z,50.63
2023-03-01T22:23:57.375Z,52.25
2023-03-01T22:26:28.179Z,46.72
2023-03-01T22:28:59.701Z,53.15
2023-03-01T22:31:28.317Z,47.77
2023-03-01T22:33:57.901Z,48.15
2023-03-01T22:36:26.529Z,48.90
2023-03-01T22:39:00.023Z,48.55
2023-03-01T22:41:29.510Z,47.75
2023-03-01T22:43:59.018Z,50.42
2023-03-01T22:46:28.177Z,51.75
2023-03-01T22:48:56.535Z,52.92
2023-03-01T22:51:26.036Z,44.85
2023-03-01T22:53:54.703Z,52.78
2023-03-01T22:56:24.775Z,40.88
2023-03-01T22:58:53.171Z,53.13
2023-03-01T23:01:24.577Z,48.90
2023-03-01T23:03:52.894Z,46.90
2023-03-01T23:06:22.326Z,46.10
2023-03-01T23:08:51.650Z,51.30
2023-03-01T23:11:21.118Z,49.40
2023-03-01T23:13:49.408Z,42.17
2023-03-01T23:16:18.466Z,49.13
2023-03-01T23:18:47.982Z,47.72
2023-03-01T23:21:18.188Z,45.30
2023-03-01T23:23:47.266Z,45.75
2023-03-01T23:26:15.866Z,47.30
2023-03-01T23:28:44.324Z,47.70
2023-03-01T23:31:14.717Z,44.50
2023-03-01T23:33:45.043Z,49.20
2023-03-01T23:36:20.361Z,46.60
2023-03-01T23:38:49.349Z,51.67
2023-03-01T23:41:20.274Z,45.28
2023-03-01T23:43:50.029Z,44.72
2023-03-01T23:46:19.866Z,48.15
2023-03-01T23:48:48.411Z,50.30
2023-03-01T23:51:19.371Z,52.58
2023-03-01T23:53:55.067Z,44.03
2023-03-01T23:56:26.851Z,47.15
2023-03-01T23:58:55.896Z,55.42
